Time;durP1;ratioP1;P1;durP2;ratioP2;P2;SDS_P1;SDS_P2;PMS_P1;PMS_P2;Temp;Humidity;BMP_temperature;BMP_pressure;BME280_temperature;BME280_humidity;BME280_pressure;Samples;Min_cycle;Max_cycle;Signal;HPM_P1;HPM_P2
2022/05/01 00:00:28;;;;;;;6.10;4.13;;;7.80;99.90;;;;;;6248395;22;20094;-92
2022/05/01 00:03:54;;;;;;;5.22;4.40;;;7.90;99.90;;;;;;6225522;22;20020;-93
2022/05/01 00:06:35;;;;;;;5.80;4.10;;;7.70;99.90;;;;;;6213665;22;20024;-93
2022/05/01 00:09:38;;;;;;;7.03;4.30;;;7.80;99.90;;;;;;6208474;22;20019;-93
2022/05/01 00:12:29;;;;;;;4.55;3.63;;;6.70;99.90;;;;;;6211729;22;20375;-92
2022/05/01 00:15:07;;;;;;;6.38;4.65;;;7.70;99.90;;;;;;6198688;22;20058;-93
2022/05/01 00:18:02;;;;;;;;;;;;;;;;;;;;;
2022/05/01 00:20:56;;;;;;;6.40;3.78;;;7.70;99.90;;;;;;6248040;22;20076;-93
2022/05/01 00:24:10;;;;;;;4.03;3.65;;;7.60;99.90;;;;;;6229602;22;20077;-94
2022/05/01 00:27:20;;;;;;;5.70;3.83;;;7.20;99.90;;;;;;6206508;22;20031;-93
2022/05/01 00:30:06;;;;;;;8.50;4.03;;;7.60;99.90;;;;;;6247062;22;20453;-93
2022/05/01 00:39:06;;;;;;;;;;;;;;;;;;;;;
2022/05/01 00:44:46;;;;;;;4.70;4.18;;;7.60;99.90;;;;;;6192179;22;20016;-93
2022/05/01 00:47:42;;;;;;;;;;;;;;;;;;;;;
2022/05/01 00:50:17;;;;;;;7.43;4.57;;;7.50;99.90;;;;;;6248410;22;20016;-94
2022/05/01 00:53:15;;;;;;;6.82;4.20;;;7.50;99.90;;;;;;6222971;22;20020;-93
2022/05/01 00:55:57;;;;;;;4.70;4.17;;;7.60;99.90;;;;;;6209164;22;20102;-94
2022/05/01 00:58:46;;;;;;;7.32;4.70;;;7.50;99.90;;;;;;6200256;22;20018;-93
2022/05/01 01:02:05;;;;;;;7.75;4.80;;;7.50;99.90;;;;;;6201210;22;20020;-93
2022/05/01 01:04:40;;;;;;;4.90;4.00;;;7.50;99.90;;;;;;6244200;22;20448;-93
2022/05/01 01:07:51;;;;;;;8.40;4.85;;;7.40;99.90;;;;;;6200023;22;20051;-93
2022/05/01 01:10:52;;;;;;;;;;;;;;;;;;;;;
2022/05/01 01:14:01;;;;;;;;;;;;;;;;;;;;;
2022/05/01 01:16:44;;;;;;;6.70;4.78;;;7.20;99.90;;;;;;6228627;22;20074;-93
2022/05/01 01:22:20;;;;;;;;;;;;;;;;;;;;;
2022/05/01 01:25:30;;;;;;;;;;;;;;;;;;;;;
2022/05/01 01:28:10;;;;;;;4.75;4.05;;;7.30;99.90;;;;;;6231733;22;20498;-94
2022/05/01 01:33:33;;;;;;;6.78;5.05;;;6.40;99.90;;;;;;6250628;22;20020;-93
2022/05/01 01:36:19;;;;;;;6.97;3.97;;;7.20;99.90;;;;;;6199185;22;20016;-94
2022/05/01 01:39:01;;;;;;;4.40;4.00;;;7.20;99.90;;;;;;6224289;22;20016;-93
2022/05/01 01:41:39;;;;;;;6.13;4.30;;;7.10;99.90;;;;;;6202942;22;20030;-93
2022/05/01 01:44:32;;;;;;;;;;;;;;;;;;;;;
2022/05/01 01:47:28;;;;;;;10.07;4.72;;;7.20;99.90;;;;;;6249551;22;20018;-93
2022/05/01 01:53:13;;;;;;;;;;;;;;;;;;;;;
2022/05/01 01:56:12;;;;;;;;;;;;;;;;;;;;;
2022/05/01 01:59:00;;;;;;;6.25;3.65;;;6.40;99.90;;;;;;6249824;22;20012;-94
2022/05/01 02:01:40;;;;;;;6.82;4.22;;;6.60;99.90;;;;;;6203737;22;20011;-93
2022/05/01 02:04:34;;;;;;;7.47;4.97;;;7.00;99.90;;;;;;6203714;22;20026;-94
2022/05/01 02:07:53;;;;;;;6.70;4.72;;;6.80;99.90;;;;;;6223997;22;20220;-92
2022/05/01 02:10:54;;;;;;;;;;;;;;;;;;;;;
2022/05/01 02:13:45;;;;;;;10.45;5.20;;;6.20;99.90;;;;;;6209373;23;20076;-93
2022/05/01 02:16:21;;;;;;;7.93;5.38;;;6.90;99.90;;;;;;6164498;23;20075;-93
2022/05/01 02:19:27;;;;;;;7.07;4.55;;;6.70;99.90;;;;;;6195001;23;20012;-92
2022/05/01 02:22:21;;;;;;;7.57;5.00;;;6.10;99.90;;;;;;6193781;23;20022;-92
2022/05/01 02:25:17;;;;;;;;;;;;;;;;;;;;;
2022/05/01 02:28:14;;;;;;;6.30;4.28;;;6.40;99.90;;;;;;6218680;23;20095;-94
2022/05/01 02:31:05;;;;;;;5.68;4.25;;;6.60;99.90;;;;;;6176372;23;20052;-94
2022/05/01 02:33:56;;;;;;;7.78;5.47;;;6.60;99.90;;;;;;6170083;23;20089;-93
2022/05/01 02:36:55;;;;;;;8.23;4.60;;;6.50;99.90;;;;;;6170934;23;20024;-93
2022/05/01 02:39:41;;;;;;;8.73;5.90;;;6.60;99.90;;;;;;6175554;23;20016;-93
2022/05/01 02:42:20;;;;;;;6.55;4.90;;;6.40;99.90;;;;;;6192899;23;20072;-93
2022/05/01 02:45:35;;;;;;;9.55;5.32;;;7.50;99.90;;;;;;6171792;23;20020;-94
2022/05/01 02:48:23;;;;;;;6.20;5.55;;;5.60;99.90;;;;;;6193411;23;20154;-93
2022/05/01 02:51:24;;;;;;;8.43;5.32;;;6.30;99.90;;;;;;6195341;23;20016;-93
2022/05/01 02:54:08;;;;;;;;;;;;;;;;;;;;;
2022/05/01 02:56:50;;;;;;;6.60;5.15;;;5.50;99.90;;;;;;6196389;23;20012;-94
2022/05/01 02:59:38;;;;;;;9.15;5.35;;;5.70;99.90;;;;;;6192831;23;20084;-93
2022/05/01 03:02:40;;;;;;;8.50;5.70;;;6.20;99.90;;;;;;6195688;23;20016;-93
2022/05/01 03:05:28;;;;;;;;;;;;;;;;;;;;;
2022/05/01 03:08:15;;;;;;;13.52;6.72;;;6.50;99.90;;;;;;6197574;23;20444;-93
2022/05/01 03:11:14;;;;;;;;;;;;;;;;;;;;;
2022/05/01 03:14:20;;;;;;;7.65;5.97;;;5.50;99.90;;;;;;6206622;23;20016;-92
2022/05/01 03:22:10;;;;;;;9.57;7.20;;;6.00;99.90;;;;;;6198759;23;20099;-93
2022/05/01 03:23:18;;;;;;;;;;;;;;;;;;;;;
2022/05/01 03:25:57;;;;;;;9.00;7.05;;;7.30;99.90;;;;;;6218750;23;20047;-92
2022/05/01 03:28:51;;;;;;;;;;;;;;;;;;;;;
2022/05/01 03:32:04;;;;;;;12.07;7.80;;;6.00;99.90;;;;;;6218879;23;20016;-93
2022/05/01 03:34:56;;;;;;;;;;;;;;;;;;;;;
2022/05/01 03:37:44;;;;;;;;;;;;;;;;;;;;;
2022/05/01 03:40:23;;;;;;;;;;;;;;;;;;;;;
2022/05/01 03:43:17;;;;;;;13.98;7.72;;;6.30;99.90;;;;;;6218062;23;20023;-92
2022/05/01 03:46:27;;;;;;;10.98;6.97;;;6.70;99.90;;;;;;6171660;23;20016;-92
2022/05/01 03:49:10;;;;;;;;;;;;;;;;;;;;;
2022/05/01 03:52:53;;;;;;;11.93;6.95;;;4.70;99.90;;;;;;6223789;23;20020;-91
2022/05/01 03:55:51;;;;;;;15.65;8.63;;;5.00;99.90;;;;;;6211689;23;20034;-92
2022/05/01 03:58:46;;;;;;;12.65;6.95;;;5.40;99.90;;;;;;6192595;23;20012;-93
2022/05/01 04:07:45;;;;;;;10.93;7.05;;;5.30;99.90;;;;;;6200576;23;20035;-94
2022/05/01 04:10:47;;;;;;;;;;;;;;;;;;;;;
2022/05/01 04:13:35;;;;;;;11.05;7.47;;;5.30;99.90;;;;;;6217636;23;20099;-93
2022/05/01 04:16:53;;;;;;;;;;;;;;;;;;;;;
2022/05/01 04:19:48;;;;;;;14.00;7.28;;;4.90;99.90;;;;;;6217438;23;20022;-93
2022/05/01 04:22:30;;;;;;;;;;;;;;;;;;;;;
2022/05/01 04:25:11;;;;;;;10.43;6.32;;;4.60;99.90;;;;;;6218599;23;20013;-93
2022/05/01 04:31:10;;;;;;;11.40;7.10;;;5.40;99.90;;;;;;6218434;23;20095;-93
2022/05/01 04:34:23;;;;;;;9.75;6.63;;;3.80;99.90;;;;;;6192717;23;20020;-92
2022/05/01 04:37:01;;;;;;;11.98;7.45;;;4.90;99.90;;;;;;6217604;23;20475;-94
2022/05/01 04:40:11;;;;;;;;;;;;;;;;;;;;;
2022/05/01 04:42:47;;;;;;;;;;;;;;;;;;;;;
2022/05/01 04:45:31;;;;;;;9.88;7.13;;;4.70;99.90;;;;;;6217790;23;19916;-93
2022/05/01 04:48:29;;;;;;;11.07;7.63;;;5.50;99.90;;;;;;6171401;23;20070;-94
2022/05/01 04:54:56;;;;;;;15.48;8.93;;;5.60;99.90;;;;;;6194201;23;20073;-93
2022/05/01 05:00:49;;;;;;;11.52;7.70;;;4.30;99.90;;;;;;6203273;23;20039;-92
2022/05/01 05:07:23;;;;;;;10.80;7.32;;;4.10;99.90;;;;;;6182804;23;20326;-93
2022/05/01 05:10:01;;;;;;;11.38;7.03;;;5.10;99.90;;;;;;6172542;23;20463;-93
2022/05/01 05:13:09;;;;;;;;;;;;;;;;;;;;;
2022/05/01 05:16:01;;;;;;;9.15;5.90;;;5.40;99.90;;;;;;6226184;22;20023;-93
2022/05/01 05:18:42;;;;;;;;;;;;;;;;;;;;;
2022/05/01 05:21:36;;;;;;;11.77;7.22;;;5.90;99.90;;;;;;6226871;22;20389;-92
2022/05/01 05:27:42;;;;;;;8.82;6.25;;;6.50;99.90;;;;;;6193287;22;20049;-92
2022/05/01 05:30:30;;;;;;;12.88;8.10;;;7.10;99.90;;;;;;6228956;22;20016;-92
2022/05/01 05:33:23;;;;;;;;;;;;;;;;;;;;;
2022/05/01 05:39:49;;;;;;;;;;;;;;;;;;;;;
2022/05/01 05:42:38;;;;;;;7.88;5.65;;;8.60;99.90;;;;;;6249289;22;20134;-91
2022/05/01 05:48:24;;;;;;;11.38;6.88;;;9.10;99.90;;;;;;6218205;22;20486;-91
2022/05/01 05:51:15;;;;;;;10.88;5.78;;;8.80;99.90;;;;;;6200383;22;20015;-91
2022/05/01 05:53:57;;;;;;;8.85;5.22;;;9.20;99.90;;;;;;6224866;22;20016;-92
2022/05/01 05:56:38;;;;;;;8.00;5.97;;;9.40;99.90;;;;;;6248891;22;20042;-91
2022/05/01 05:59:10;;;;;;;8.50;4.90;;;9.10;99.90;;;;;;6224081;22;20011;-92
2022/05/01 06:05:11;;;;;;;;;;;;;;;;;;;;;
2022/05/01 06:07:48;;;;;;;6.40;4.68;;;9.30;99.90;;;;;;6249122;22;20023;-91
2022/05/01 06:10:40;;;;;;;;;;;;;;;;;;;;;
2022/05/01 06:13:11;;;;;;;8.25;4.70;;;9.80;99.90;;;;;;6229456;22;20022;-89
2022/05/01 06:15:43;;;;;;;7.85;4.55;;;9.20;99.90;;;;;;6223374;22;20019;-90
2022/05/01 06:18:15;;;;;;;6.10;3.85;;;9.40;99.90;;;;;;6224107;22;20023;-90
2022/05/01 06:20:44;;;;;;;6.78;4.57;;;9.50;99.90;;;;;;6249328;22;20030;-91
2022/05/01 06:23:10;;;;;;;6.03;4.75;;;9.70;99.90;;;;;;6223915;22;20019;-90
2022/05/01 06:25:54;;;;;;;;;;;;;;;;;;;;;
2022/05/01 06:28:31;;;;;;;6.82;4.32;;;10.30;99.90;;;;;;6247827;22;20367;-89
2022/05/01 06:30:58;;;;;;;8.13;4.75;;;10.60;99.90;;;;;;6224562;22;20020;-88
2022/05/01 06:33:46;;;;;;;;;;;;;;;;;;;;;
2022/05/01 06:36:18;;;;;;;6.63;3.00;;;11.20;99.90;;;;;;6226170;22;20451;-88
2022/05/01 06:39:11;;;;;;;3.08;2.78;;;11.50;99.90;;;;;;6223195;22;20039;-92
2022/05/01 06:41:50;;;;;;;4.45;2.58;;;11.80;99.90;;;;;;6186041;22;20028;-96
2022/05/01 06:44:16;;;;;;;3.38;2.88;;;11.90;99.90;;;;;;6223833;22;20022;-90
2022/05/01 06:46:44;;;;;;;5.00;4.00;;;12.20;99.90;;;;;;6199893;22;20044;-96
2022/05/01 06:49:13;;;;;;;5.85;3.30;;;12.20;99.90;;;;;;6201918;22;20016;-93
2022/05/01 06:51:51;;;;;;;4.63;3.58;;;12.60;99.90;;;;;;6227449;22;20023;-96
2022/05/01 06:54:19;;;;;;;5.93;3.53;;;12.80;99.90;;;;;;6253032;22;20024;-91
2022/05/01 06:57:06;;;;;;;3.13;2.83;;;12.90;99.90;;;;;;6223851;22;20027;-91
2022/05/01 07:05:49;;;;;;;;;;;;;;;;;;;;;
2022/05/01 07:08:53;;;;;;;;;;;;;;;;;;;;;
2022/05/01 07:12:13;;;;;;;;;;;;;;;;;;;;;
2022/05/01 07:15:01;;;;;;;;;;;;;;;;;;;;;
2022/05/01 07:17:53;;;;;;;1.95;1.73;;;13.20;99.90;;;;;;6105926;23;20327;-92
2022/05/01 07:21:14;;;;;;;2.13;1.80;;;12.70;99.90;;;;;;6103138;23;20185;-91
2022/05/01 07:24:10;;;;;;;3.03;2.28;;;13.30;99.90;;;;;;6188519;22;20019;-90
2022/05/01 07:36:02;;;;;;;3.70;2.78;;;14.10;99.90;;;;;;6257503;22;19977;-91
2022/05/01 07:38:53;;;;;;;;;;;;;;;;;;;;;
2022/05/01 07:41:37;;;;;;;;;;;;;;;;;;;;;
2022/05/01 07:44:26;;;;;;;3.03;2.40;;;14.90;99.90;;;;;;6248778;22;20016;-89
2022/05/01 07:47:07;;;;;;;2.78;2.05;;;15.30;99.90;;;;;;6224647;22;20051;-87
2022/05/01 07:50:24;;;;;;;;;;;;;;;;;;;;;
2022/05/01 07:53:38;;;;;;;4.93;2.33;;;15.40;99.90;;;;;;6249354;22;20173;-89
2022/05/01 07:56:25;;;;;;;3.17;2.70;;;15.50;99.90;;;;;;6206837;22;20020;-91
2022/05/01 07:59:42;;;;;;;2.78;2.15;;;15.30;99.90;;;;;;6223396;22;20020;-88
2022/05/01 08:02:27;;;;;;;4.75;2.50;;;15.20;99.90;;;;;;6231581;22;20031;-89
2022/05/01 08:05:35;;;;;;;;;;;;;;;;;;;;;
2022/05/01 08:08:13;;;;;;;;;;;;;;;;;;;;;
2022/05/01 08:11:04;;;;;;;3.80;2.53;;;15.70;99.90;;;;;;6247652;22;20022;-88
2022/05/01 08:16:35;;;;;;;1.92;1.80;;;15.50;99.90;;;;;;6236883;22;20052;-91
2022/05/01 08:22:05;;;;;;;6.18;2.97;;;15.80;99.90;;;;;;6226181;22;20020;-86
2022/05/01 08:28:06;;;;;;;2.13;1.80;;;16.60;97.90;;;;;;6221046;22;20020;-87
2022/05/01 08:30:31;;;;;;;2.42;2.22;;;15.60;98.60;;;;;;6246882;22;20028;-84
2022/05/01 08:33:10;;;;;;;2.88;2.28;;;15.40;99.20;;;;;;6248319;22;20023;-85
2022/05/01 08:36:02;;;;;;;2.22;1.98;;;14.90;98.30;;;;;;6177309;22;20105;-87
2022/05/01 08:39:10;;;;;;;;;;;;;;;;;;;;;
2022/05/01 08:41:50;;;;;;;1.73;1.60;;;14.50;98.10;;;;;;6248563;22;20023;-87
2022/05/01 08:48:41;;;;;;;;;;;;;;;;;;;;;
2022/05/01 08:51:26;;;;;;;;;;;;;;;;;;;;;
2022/05/01 08:54:05;;;;;;;;;;;;;;;;;;;;;
2022/05/01 08:56:41;;;;;;;2.03;1.83;;;14.80;97.10;;;;;;6249033;22;20098;-88
2022/05/01 08:59:31;;;;;;;6.15;2.38;;;14.90;96.50;;;;;;6249571;22;20070;-87
2022/05/01 09:02:03;;;;;;;3.88;1.85;;;15.00;96.60;;;;;;6225069;22;20051;-86
2022/05/01 09:04:38;;;;;;;2.53;2.00;;;15.00;96.20;;;;;;6249560;22;20103;-90
2022/05/01 09:07:06;;;;;;;3.58;2.17;;;15.10;96.40;;;;;;6224470;22;20027;-86
2022/05/01 09:09:35;;;;;;;4.22;2.00;;;15.00;96.00;;;;;;6223331;22;20015;-89
2022/05/01 09:12:53;;;;;;;3.00;2.05;;;14.50;95.50;;;;;;6225133;22;20020;-89
2022/05/01 09:15:40;;;;;;;6.45;2.55;;;15.20;94.30;;;;;;6200988;22;20385;-90
2022/05/01 09:18:31;;;;;;;5.37;2.23;;;15.40;94.10;;;;;;6249359;22;20019;-87
2022/05/01 09:21:18;;;;;;;2.58;2.38;;;15.30;94.50;;;;;;6247415;22;20340;-87
2022/05/01 09:24:11;;;;;;;2.42;1.83;;;14.40;92.70;;;;;;6224418;22;20457;-87
2022/05/01 09:26:47;;;;;;;1.60;1.35;;;15.00;93.90;;;;;;6211534;22;20020;-88
2022/05/01 09:29:40;;;;;;;2.33;1.75;;;14.90;93.30;;;;;;6199994;22;20019;-89
2022/05/01 09:32:11;;;;;;;1.88;1.70;;;14.10;93.60;;;;;;6223929;22;20041;-88
2022/05/01 09:35:05;;;;;;;;;;;;;;;;;;;;;
2022/05/01 09:37:41;;;;;;;1.80;1.70;;;14.50;94.10;;;;;;6250116;22;20020;-87
2022/05/01 09:40:34;;;;;;;4.30;2.67;;;14.90;94.70;;;;;;6250379;22;20022;-87
2022/05/01 09:43:41;;;;;;;;;;;;;;;;;;;;;
2022/05/01 09:47:13;;;;;;;;;;;;;;;;;;;;;
2022/05/01 09:49:57;;;;;;;4.95;2.10;;;15.20;92.90;;;;;;6231972;22;20020;-93
2022/05/01 09:53:09;;;;;;;6.53;2.08;;;15.20;92.70;;;;;;6249004;22;20020;-89
2022/05/01 09:56:02;;;;;;;;;;;;;;;;;;;;;
2022/05/01 10:03:18;;;;;;;2.58;2.33;;;15.60;92.50;;;;;;6209494;22;20360;-91
2022/05/01 10:10:08;;;;;;;;;;;;;;;;;;;;;
2022/05/01 10:13:03;;;;;;;4.80;2.20;;;15.30;89.30;;;;;;6247938;22;20073;-91
2022/05/01 10:16:10;;;;;;;;;;;;;;;;;;;;;
2022/05/01 10:19:19;;;;;;;;;;;;;;;;;;;;;
2022/05/01 10:25:58;;;;;;;2.33;1.80;;;16.00;89.90;;;;;;6211781;22;20022;-91
2022/05/01 10:32:36;;;;;;;4.28;1.52;;;16.40;84.90;;;;;;6212436;23;20025;-91
2022/05/01 10:36:15;;;;;;;;;;;;;;;;;;;;;
2022/05/01 10:39:38;;;;;;;;;;;;;;;;;;;;;
2022/05/01 10:46:03;;;;;;;3.40;1.92;;;15.30;83.20;;;;;;6233150;22;20102;-90
2022/05/01 10:49:57;;;;;;;2.72;2.03;;;15.50;84.40;;;;;;6222752;22;20015;-91
2022/05/01 10:52:52;;;;;;;2.60;1.63;;;15.80;81.90;;;;;;6231480;22;20118;-91
2022/05/01 10:55:34;;;;;;;2.63;1.70;;;15.30;81.40;;;;;;6247331;22;20092;-91
2022/05/01 10:58:53;;;;;;;;;;;;;;;;;;;;;
2022/05/01 11:06:12;;;;;;;;;;;;;;;;;;;;;
2022/05/01 11:09:19;;;;;;;;;;;;;;;;;;;;;
2022/05/01 11:12:46;;;;;;;;;;;;;;;;;;;;;
2022/05/01 11:16:00;;;;;;;;;;;;;;;;;;;;;
2022/05/01 11:18:28;;;;;;;4.25;1.52;;;17.00;77.50;;;;;;6230703;22;20016;-90
2022/05/01 11:21:35;;;;;;;;;;;;;;;;;;;;;
2022/05/01 11:24:33;;;;;;;;;;;;;;;;;;;;;
2022/05/01 11:34:21;;;;;;;;;;;;;;;;;;;;;
2022/05/01 11:51:34;;;;;;;;;;;;;;;;;;;;;
2022/05/01 11:55:23;;;;;;;;;;;;;;;;;;;;;
2022/05/01 12:05:10;;;;;;;3.20;1.65;;;17.30;69.50;;;;;;6193584;22;20515;-90
2022/05/01 12:08:10;;;;;;;;;;;;;;;;;;;;;
2022/05/01 12:11:36;;;;;;;;;;;;;;;;;;;;;
2022/05/01 12:28:39;;;;;;;1.98;1.73;;;16.60;71.00;;;;;;6099045;23;20111;-91
2022/05/01 12:46:25;;;;;;;;;;;;;;;;;;;;;
2022/05/01 12:49:39;;;;;;;;;;;;;;;;;;;;;
2022/05/01 12:53:21;;;;;;;;;;;;;;;;;;;;;
2022/05/01 12:56:44;;;;;;;;;;;;;;;;;;;;;
2022/05/01 12:59:51;;;;;;;2.17;1.83;;;15.50;73.00;;;;;;6226151;22;20012;-91
2022/05/01 13:02:49;;;;;;;3.00;1.98;;;15.60;72.60;;;;;;6250582;22;20028;-91
2022/05/01 13:05:56;;;;;;;1.90;1.55;;;15.20;73.90;;;;;;6200492;22;20020;-90
2022/05/01 13:08:58;;;;;;;;;;;;;;;;;;;;;
2022/05/01 13:15:18;;;;;;;;;;;;;;;;;;;;;
2022/05/01 13:18:26;;;;;;;2.00;1.50;;;15.20;73.20;;;;;;6275601;22;20016;-90
2022/05/01 13:24:21;;;;;;;1.90;1.45;;;15.80;75.40;;;;;;6227859;22;20016;-90
2022/05/01 13:27:16;;;;;;;;;;;;;;;;;;;;;
2022/05/01 13:37:13;;;;;;;;;;;;;;;;;;;;;
2022/05/01 13:51:01;;;;;;;;;;;;;;;;;;;;;
2022/05/01 13:54:36;;;;;;;6.47;1.50;;;15.00;73.90;;;;;;6251862;22;20020;-91
2022/05/01 13:57:43;;;;;;;;;;;;;;;;;;;;;
2022/05/01 14:00:55;;;;;;;1.57;1.47;;;16.40;75.00;;;;;;6108429;23;20048;-92
2022/05/01 14:14:11;;;;;;;1.90;1.77;;;16.30;72.40;;;;;;6170017;22;20103;-91
2022/05/01 14:23:54;;;;;;;1.98;1.75;;;16.80;72.80;;;;;;6232250;22;20059;-91
2022/05/01 14:30:24;;;;;;;;;;;;;;;;;;;;;
2022/05/01 14:33:45;;;;;;;;;;;;;;;;;;;;;
2022/05/01 14:44:00;;;;;;;;;;;;;;;;;;;;;
2022/05/01 14:46:50;;;;;;;;;;;;;;;;;;;;;
2022/05/01 15:09:50;;;;;;;1.67;1.58;;;15.70;71.10;;;;;;6276709;22;20367;-90
2022/05/01 15:23:31;;;;;;;4.57;1.88;;;15.40;73.10;;;;;;6157512;23;20068;-90
2022/05/01 15:26:41;;;;;;;;;;;;;;;;;;;;;
2022/05/01 15:29:43;;;;;;;2.95;2.00;;;15.50;76.70;;;;;;6137030;23;20024;-90
2022/05/01 15:36:31;;;;;;;1.83;1.60;;;15.90;78.30;;;;;;6157258;23;20024;-90
2022/05/01 15:39:36;;;;;;;;;;;;;;;;;;;;;
2022/05/01 15:42:31;;;;;;;4.00;1.60;;;14.80;76.60;;;;;;6218862;23;20051;-90
2022/05/01 15:46:20;;;;;;;;;;;;;;;;;;;;;
2022/05/01 15:55:39;;;;;;;;;;;;;;;;;;;;;
2022/05/01 15:58:44;;;;;;;;;;;;;;;;;;;;;
2022/05/01 16:01:42;;;;;;;5.22;2.05;;;15.40;77.40;;;;;;6217658;23;20091;-90
2022/05/01 16:04:29;;;;;;;;;;;;;;;;;;;;;
2022/05/01 16:08:19;;;;;;;;;;;;;;;;;;;;;
2022/05/01 16:11:48;;;;;;;1.77;1.60;;;15.40;77.00;;;;;;6192783;23;20016;-90
2022/05/01 16:18:40;;;;;;;2.10;1.73;;;15.40;76.80;;;;;;6226428;22;20015;-90
2022/05/01 16:21:53;;;;;;;;;;;;;;;;;;;;;
2022/05/01 16:24:39;;;;;;;;;;;;;;;;;;;;;
2022/05/01 16:28:11;;;;;;;;;;;;;;;;;;;;;
2022/05/01 16:31:42;;;;;;;;;;;;;;;;;;;;;
2022/05/01 16:35:29;;;;;;;;;;;;;;;;;;;;;
2022/05/01 16:38:35;;;;;;;2.25;1.50;;;15.10;78.00;;;;;;6248978;22;20019;-90
2022/05/01 16:44:17;;;;;;;2.13;1.73;;;15.00;80.10;;;;;;6228268;22;20038;-91
2022/05/01 16:47:02;;;;;;;;;;;;;;;;;;;;;
2022/05/01 16:50:19;;;;;;;2.13;1.60;;;14.70;81.50;;;;;;6248276;22;20022;-93
2022/05/01 16:53:40;;;;;;;;;;;;;;;;;;;;;
2022/05/01 16:56:39;;;;;;;1.88;1.40;;;14.60;84.90;;;;;;6249813;22;20018;-90
2022/05/01 16:59:51;;;;;;;2.85;1.83;;;14.50;85.30;;;;;;6225981;22;20012;-90
2022/05/01 17:02:54;;;;;;;1.67;1.58;;;13.90;86.30;;;;;;6218908;22;20051;-91
2022/05/01 17:17:19;;;;;;;;;;;;;;;;;;;;;
2022/05/01 17:20:50;;;;;;;3.70;2.10;;;14.30;88.20;;;;;;6012728;23;20023;-87
2022/05/01 17:31:02;;;;;;;;;;;;;;;;;;;;;
2022/05/01 17:34:17;;;;;;;;;;;;;;;;;;;;;
2022/05/01 17:37:32;;;;;;;;;;;;;;;;;;;;;
2022/05/01 17:44:27;;;;;;;2.35;1.92;;;13.80;91.50;;;;;;6096513;23;20064;-96
2022/05/01 17:47:47;;;;;;;;;;;;;;;;;;;;;
2022/05/01 18:23:02;;;;;;;3.30;1.77;;;13.10;95.80;;;;;;6171272;23;20078;-94
2022/05/01 18:26:19;;;;;;;;;;;;;;;;;;;;;
2022/05/01 18:40:39;;;;;;;;;;;;;;;;;;;;;
2022/05/01 18:50:07;;;;;;;5.18;2.00;;;11.80;99.10;;;;;;6269927;22;20235;-94
2022/05/01 18:53:30;;;;;;;;;;;;;;;;;;;;;
2022/05/01 18:56:29;;;;;;;2.53;1.90;;;12.10;99.90;;;;;;6184608;22;20021;-96
2022/05/01 18:59:31;;;;;;;1.45;1.35;;;11.40;99.90;;;;;;6227843;22;20339;-95
2022/05/01 19:02:16;;;;;;;9.30;2.53;;;11.30;99.90;;;;;;6225135;22;20020;-93
2022/05/01 19:09:13;;;;;;;;;;;;;;;;;;;;;
2022/05/01 19:12:36;;;;;;;2.35;1.83;;;11.80;99.90;;;;;;6250398;22;20069;-92
2022/05/01 19:18:43;;;;;;;2.95;1.70;;;10.70;99.90;;;;;;6226105;22;20071;-90
2022/05/01 19:27:49;;;;;;;;;;;;;;;;;;;;;
2022/05/01 19:30:17;;;;;;;2.50;2.13;;;10.30;99.90;;;;;;6247737;22;20023;-90
2022/05/01 19:32:46;;;;;;;3.70;2.17;;;10.30;99.90;;;;;;6248274;22;20016;-89
2022/05/01 19:35:52;;;;;;;2.00;1.55;;;10.20;99.90;;;;;;6223381;22;20062;-88
2022/05/01 19:42:43;;;;;;;;;;;;;;;;;;;;;
2022/05/01 19:45:31;;;;;;;2.03;1.92;;;10.00;99.90;;;;;;6236795;22;20518;-91
2022/05/01 19:58:20;;;;;;;1.65;1.30;;;8.70;99.90;;;;;;6249936;22;20098;-91
2022/05/01 20:01:26;;;;;;;1.77;1.30;;;8.80;99.90;;;;;;6243902;22;20034;-90
2022/05/01 20:04:03;;;;;;;2.13;1.70;;;9.50;99.90;;;;;;6170320;22;20015;-88
2022/05/01 20:06:42;;;;;;;2.35;2.13;;;9.40;99.90;;;;;;6248235;22;20391;-91
2022/05/01 20:09:38;;;;;;;4.55;2.25;;;9.30;99.90;;;;;;6200213;22;20455;-91
2022/05/01 20:12:26;;;;;;;2.53;1.90;;;9.10;99.90;;;;;;6247243;22;20457;-90
2022/05/01 20:14:52;;;;;;;5.20;2.78;;;9.20;99.90;;;;;;6248642;22;20020;-96
2022/05/01 20:17:38;;;;;;;2.13;1.90;;;9.20;99.90;;;;;;6223277;22;20051;-88
2022/05/01 20:20:29;;;;;;;5.20;1.67;;;8.20;99.90;;;;;;6248854;22;20046;-91
2022/05/01 20:23:22;;;;;;;2.13;1.77;;;9.10;99.90;;;;;;6248084;22;20080;-90
2022/05/01 20:25:51;;;;;;;2.28;2.08;;;9.10;99.90;;;;;;6223327;22;20019;-90
2022/05/01 20:28:51;;;;;;;1.88;1.67;;;9.00;99.90;;;;;;6248310;22;20019;-91
2022/05/01 20:32:18;;;;;;;4.88;2.00;;;9.10;99.90;;;;;;6160961;22;20393;-88
2022/05/01 20:35:15;;;;;;;2.47;1.95;;;9.00;99.90;;;;;;6209565;22;20015;-89
2022/05/01 20:38:22;;;;;;;1.83;1.65;;;8.80;99.90;;;;;;6251010;22;20023;-88
2022/05/01 20:41:15;;;;;;;2.55;2.30;;;9.00;99.90;;;;;;6224470;22;20027;-88
2022/05/01 20:44:17;;;;;;;;;;;;;;;;;;;;;
2022/05/01 20:47:03;;;;;;;2.42;1.80;;;8.80;99.90;;;;;;6248957;22;20016;-92
2022/05/01 20:50:21;;;;;;;;;;;;;;;;;;;;;
2022/05/01 20:53:35;;;;;;;;;;;;;;;;;;;;;
2022/05/01 20:56:18;;;;;;;;;;;;;;;;;;;;;
2022/05/01 20:58:51;;;;;;;2.92;2.40;;;8.60;99.90;;;;;;6250916;22;20023;-92
2022/05/01 21:01:38;;;;;;;;;;;;;;;;;;;;;
2022/05/01 21:04:42;;;;;;;1.70;1.60;;;8.70;99.90;;;;;;6250452;22;20090;-91
2022/05/01 21:07:29;;;;;;;2.35;1.92;;;8.70;99.90;;;;;;6245752;22;20022;-91
2022/05/01 21:10:00;;;;;;;3.35;2.70;;;8.60;99.90;;;;;;6235789;22;20628;-93
2022/05/01 21:13:08;;;;;;;;;;;;;;;;;;;;;
2022/05/01 21:15:45;;;;;;;3.15;2.33;;;8.60;99.90;;;;;;6276368;22;20018;-89
2022/05/01 21:18:14;;;;;;;2.53;2.13;;;8.40;99.90;;;;;;6248107;22;20437;-91
2022/05/01 21:20:42;;;;;;;4.10;2.42;;;8.40;99.90;;;;;;6224352;22;20015;-95
2022/05/01 21:23:11;;;;;;;3.88;2.17;;;8.50;99.90;;;;;;6248683;22;20023;-85
2022/05/01 21:25:42;;;;;;;3.08;2.13;;;8.30;99.90;;;;;;6250010;22;20023;-86
2022/05/01 21:33:42;;;;;;;3.97;2.42;;;8.30;99.90;;;;;;6228696;22;20337;-85
2022/05/01 21:36:19;;;;;;;2.65;1.95;;;8.20;99.90;;;;;;6199892;22;20369;-85
2022/05/01 21:38:47;;;;;;;2.07;1.87;;;8.20;99.90;;;;;;6225043;22;20011;-85
2022/05/01 21:41:13;;;;;;;2.20;1.85;;;8.10;99.90;;;;;;6249760;22;20043;-85
2022/05/01 21:43:39;;;;;;;2.75;2.13;;;8.00;99.90;;;;;;6224216;22;20007;-85
2022/05/01 21:46:06;;;;;;;3.13;2.57;;;8.00;99.90;;;;;;6224009;22;20016;-86
2022/05/01 21:48:32;;;;;;;4.00;2.60;;;8.00;99.90;;;;;;6223434;22;20043;-85
2022/05/01 21:50:59;;;;;;;4.45;2.65;;;7.90;99.90;;;;;;6224113;22;20019;-85
2022/05/01 21:53:25;;;;;;;;;;;7.90;99.90;;;;;;6249258;22;20007;-85
2022/05/01 21:55:51;;;;;;;1.90;1.80;;;7.80;99.90;;;;;;6249453;22;20037;-86
2022/05/01 21:58:16;;;;;;;2.17;1.57;;;7.90;99.90;;;;;;6198251;22;20061;-85
2022/05/01 22:00:45;;;;;;;4.00;2.50;;;7.90;99.90;;;;;;6223680;22;20366;-85
2022/05/01 22:03:11;;;;;;;3.47;2.08;;;7.80;99.90;;;;;;6223755;22;20012;-85
2022/05/01 22:05:37;;;;;;;1.70;1.40;;;7.80;99.90;;;;;;6223135;22;20020;-85
2022/05/01 22:08:04;;;;;;;4.25;2.45;;;7.80;99.90;;;;;;6198980;22;20022;-85
2022/05/01 22:10:31;;;;;;;1.95;1.30;;;7.70;99.90;;;;;;6223998;22;20011;-85
2022/05/01 22:12:57;;;;;;;5.33;2.10;;;7.60;99.90;;;;;;6199288;22;20023;-85
2022/05/01 22:15:22;;;;;;;5.57;2.30;;;7.60;99.90;;;;;;6197889;22;20243;-85
2022/05/01 22:17:49;;;;;;;2.50;2.07;;;7.70;99.90;;;;;;6223485;22;20016;-85
2022/05/01 22:20:22;;;;;;;3.67;2.00;;;7.50;99.90;;;;;;6223555;22;20018;-85
2022/05/01 22:22:49;;;;;;;2.38;1.85;;;7.50;99.90;;;;;;6249087;22;20054;-85
2022/05/01 22:25:16;;;;;;;2.25;2.05;;;7.40;99.90;;;;;;6198780;22;20020;-85
2022/05/01 22:27:43;;;;;;;3.08;2.28;;;6.50;99.90;;;;;;6222729;22;20012;-85
2022/05/01 22:30:09;;;;;;;;;;;7.40;99.90;;;;;;6249277;22;20511;-85
2022/05/01 22:32:38;;;;;;;2.30;2.00;;;7.30;99.90;;;;;;6223078;22;19960;-85
2022/05/01 22:37:53;;;;;;;3.28;1.77;;;7.20;99.90;;;;;;6226588;22;20020;-85
2022/05/01 22:40:22;;;;;;;2.90;2.53;;;7.20;99.90;;;;;;6223352;22;20007;-84
2022/05/01 22:42:48;;;;;;;2.90;2.20;;;7.30;99.90;;;;;;6222790;22;20019;-85
2022/05/01 22:45:14;;;;;;;2.72;2.28;;;8.00;99.90;;;;;;6198435;22;20019;-85
2022/05/01 22:47:41;;;;;;;6.03;2.43;;;7.10;99.90;;;;;;6222762;22;20008;-85
2022/05/01 22:50:10;;;;;;;4.18;2.75;;;7.50;99.90;;;;;;6222963;22;20022;-84
2022/05/01 22:52:37;;;;;;;2.08;1.88;;;7.00;99.90;;;;;;6223037;22;20072;-85
2022/05/01 22:55:05;;;;;;;4.28;2.13;;;7.40;99.90;;;;;;6249077;22;20436;-85
2022/05/01 22:57:31;;;;;;;4.63;2.33;;;6.80;99.90;;;;;;6222370;22;20019;-85
2022/05/01 23:00:00;;;;;;;2.42;2.22;;;6.80;99.90;;;;;;6248611;22;20007;-84
2022/05/01 23:02:26;;;;;;;3.80;3.15;;;6.80;99.90;;;;;;6222909;22;20448;-84
2022/05/01 23:04:54;;;;;;;2.92;2.53;;;6.00;99.90;;;;;;6223551;22;20011;-85
2022/05/01 23:07:20;;;;;;;4.28;2.60;;;7.30;99.90;;;;;;6222739;22;20434;-85
2022/05/01 23:09:46;;;;;;;2.53;2.33;;;6.90;99.90;;;;;;6223145;22;20022;-85
2022/05/01 23:12:12;;;;;;;3.33;2.30;;;8.10;99.90;;;;;;6223372;22;20305;-85
2022/05/01 23:14:41;;;;;;;2.57;2.07;;;7.80;99.90;;;;;;6247937;22;20096;-85
2022/05/01 23:17:09;;;;;;;2.90;2.33;;;7.80;99.90;;;;;;6223406;22;20089;-85
2022/05/01 23:19:38;;;;;;;4.32;2.58;;;7.90;99.90;;;;;;6247570;22;20038;-84
2022/05/01 23:22:03;;;;;;;1.90;1.70;;;6.80;99.90;;;;;;6248522;22;20374;-85
2022/05/01 23:24:29;;;;;;;2.37;2.13;;;6.70;99.90;;;;;;6222283;22;20011;-85
2022/05/01 23:26:55;;;;;;;3.13;2.00;;;6.60;99.90;;;;;;6223112;22;20007;-85
2022/05/01 23:29:21;;;;;;;3.00;2.53;;;7.20;99.90;;;;;;6197044;22;20331;-85
2022/05/01 23:31:47;;;;;;;2.97;2.13;;;5.90;99.90;;;;;;6223069;22;20019;-85
2022/05/01 23:34:13;;;;;;;3.07;2.17;;;6.60;99.90;;;;;;6222962;22;20031;-85
2022/05/01 23:36:39;;;;;;;4.67;3.27;;;6.50;99.90;;;;;;6222305;22;20105;-85